SKCC/CUC METAR and TAF weather

Enter ICAO airport designator
Station Type Date Time Source
SKCC METAR 2021/09/27 02:00 UTC NOAA

SKCC 270200Z 18008KT 9999 SCT020 30/20 Q1015 RMK A2997


Station Type Date Time Source
SKCC Decoded METAR 2021/09/27 02:00 UTC NOAA

Cucuta / Camilo Daza, Colombia (SKCC) 07-56N 072-31W 317M
Sep 26, 2021 - 10:00 PM EDT / 2021.09.27 0200 UTC
Wind: from the S (180 degrees) at 9 MPH (8 KT):0
Visibility: greater than 7 mile(s):0
Sky conditions: partly cloudy
Temperature: 86 F (30 C)
Dew Point: 68 F (20 C)
Relative Humidity: 55%
Pressure (altimeter): 29.97 in. Hg (1015 hPa)
ob: SKCC 270200Z 18008KT 9999 SCT020 30/20 Q1015 RMK A2997
cycle: 2

Station Type Date Time Source
SKCC TAF 2021/09/27 06:42 UTC NOAA

TAF SKCC 270430Z 2706/2806 VRB03KT 9999 FEW030
BECMG 2713/2715 18012KT TX38/2718Z TN22/2710Z

Example: see airport list